sensor_id;sensor_type;location;lat;lon;timestamp;temperature;humidity
24226;DHT22;51462;51.422;5.514;2022-12-01T00:01:09;7.70;99.90
24226;DHT22;51462;51.422;5.514;2022-12-01T00:03:35;7.70;99.90
24226;DHT22;51462;51.422;5.514;2022-12-01T00:06:05;7.40;99.90
24226;DHT22;51462;51.422;5.514;2022-12-01T00:08:30;7.40;99.90
24226;DHT22;51462;51.422;5.514;2022-12-01T00:11:07;7.30;99.90
24226;DHT22;51462;51.422;5.514;2022-12-01T00:13:33;7.60;99.90
24226;DHT22;51462;51.422;5.514;2022-12-01T00:16:13;7.50;99.90
24226;DHT22;51462;51.422;5.514;2022-12-01T00:18:39;7.60;99.90
24226;DHT22;51462;51.422;5.514;2022-12-01T00:21:04;7.90;99.90
24226;DHT22;51462;51.422;5.514;2022-12-01T00:23:30;8.00;99.90
24226;DHT22;51462;51.422;5.514;2022-12-01T00:26:02;8.00;99.90
24226;DHT22;51462;51.422;5.514;2022-12-01T00:28:29;8.10;99.90
24226;DHT22;51462;51.422;5.514;2022-12-01T00:30:54;7.70;99.90
24226;DHT22;51462;51.422;5.514;2022-12-01T00:33:20;7.70;99.90
24226;DHT22;51462;51.422;5.514;2022-12-01T00:35:45;7.80;99.90
24226;DHT22;51462;51.422;5.514;2022-12-01T00:38:11;8.10;99.90
24226;DHT22;51462;51.422;5.514;2022-12-01T00:40:36;8.00;99.90
24226;DHT22;51462;51.422;5.514;2022-12-01T00:43:02;7.80;99.90
24226;DHT22;51462;51.422;5.514;2022-12-01T00:45:27;7.70;99.90
24226;DHT22;51462;51.422;5.514;2022-12-01T00:47:53;7.60;99.90
24226;DHT22;51462;51.422;5.514;2022-12-01T00:50:18;7.50;99.90
24226;DHT22;51462;51.422;5.514;2022-12-01T00:52:44;7.90;99.90
24226;DHT22;51462;51.422;5.514;2022-12-01T00:55:09;7.90;99.90
24226;DHT22;51462;51.422;5.514;2022-12-01T00:57:35;7.90;99.90
24226;DHT22;51462;51.422;5.514;2022-12-01T01:00:01;7.90;99.90
24226;DHT22;51462;51.422;5.514;2022-12-01T01:02:26;8.20;99.90
24226;DHT22;51462;51.422;5.514;2022-12-01T01:04:52;8.20;99.90
24226;DHT22;51462;51.422;5.514;2022-12-01T01:07:17;8.10;99.90
24226;DHT22;51462;51.422;5.514;2022-12-01T01:09:44;7.90;99.90
24226;DHT22;51462;51.422;5.514;2022-12-01T01:12:10;7.80;99.90
24226;DHT22;51462;51.422;5.514;2022-12-01T01:14:35;8.10;99.90
24226;DHT22;51462;51.422;5.514;2022-12-01T01:17:01;8.00;99.90
24226;DHT22;51462;51.422;5.514;2022-12-01T01:19:26;8.10;99.90
24226;DHT22;51462;51.422;5.514;2022-12-01T01:21:52;8.00;99.90
24226;DHT22;51462;51.422;5.514;2022-12-01T01:24:17;8.00;99.90
24226;DHT22;51462;51.422;5.514;2022-12-01T01:26:43;7.80;99.90
24226;DHT22;51462;51.422;5.514;2022-12-01T01:29:09;7.90;99.90
24226;DHT22;51462;51.422;5.514;2022-12-01T01:31:34;8.10;99.90
24226;DHT22;51462;51.422;5.514;2022-12-01T01:34:01;8.00;99.90
24226;DHT22;51462;51.422;5.514;2022-12-01T01:36:27;7.80;99.90
24226;DHT22;51462;51.422;5.514;2022-12-01T01:38:53;8.20;99.90
24226;DHT22;51462;51.422;5.514;2022-12-01T01:41:20;8.00;99.90
24226;DHT22;51462;51.422;5.514;2022-12-01T01:43:52;8.10;99.90
24226;DHT22;51462;51.422;5.514;2022-12-01T01:46:24;7.70;99.90
24226;DHT22;51462;51.422;5.514;2022-12-01T01:48:53;8.10;99.90
24226;DHT22;51462;51.422;5.514;2022-12-01T01:51:39;8.20;99.90
24226;DHT22;51462;51.422;5.514;2022-12-01T01:54:10;7.80;99.90
24226;DHT22;51462;51.422;5.514;2022-12-01T01:56:41;7.80;99.90
24226;DHT22;51462;51.422;5.514;2022-12-01T01:59:08;7.60;99.90
24226;DHT22;51462;51.422;5.514;2022-12-01T02:01:35;7.90;99.90
24226;DHT22;51462;51.422;5.514;2022-12-01T02:04:01;7.90;99.90
24226;DHT22;51462;51.422;5.514;2022-12-01T02:06:27;7.60;99.90
24226;DHT22;51462;51.422;5.514;2022-12-01T02:08:54;7.60;99.90
24226;DHT22;51462;51.422;5.514;2022-12-01T02:20:03;7.70;99.90
24226;DHT22;51462;51.422;5.514;2022-12-01T02:22:44;7.80;99.90
24226;DHT22;51462;51.422;5.514;2022-12-01T02:28:45;7.70;99.90
24226;DHT22;51462;51.422;5.514;2022-12-01T02:31:30;7.50;99.90
24226;DHT22;51462;51.422;5.514;2022-12-01T02:34:20;7.40;99.90
24226;DHT22;51462;51.422;5.514;2022-12-01T02:36:53;7.70;99.90
24226;DHT22;51462;51.422;5.514;2022-12-01T02:42:00;7.40;99.90
24226;DHT22;51462;51.422;5.514;2022-12-01T02:44:43;7.30;99.90
24226;DHT22;51462;51.422;5.514;2022-12-01T02:47:16;7.30;99.90
24226;DHT22;51462;51.422;5.514;2022-12-01T02:49:46;7.30;99.90
24226;DHT22;51462;51.422;5.514;2022-12-01T02:52:14;7.40;99.90
24226;DHT22;51462;51.422;5.514;2022-12-01T02:54:40;7.60;99.90
24226;DHT22;51462;51.422;5.514;2022-12-01T02:57:12;7.60;99.90
24226;DHT22;51462;51.422;5.514;2022-12-01T02:59:39;7.20;99.90
24226;DHT22;51462;51.422;5.514;2022-12-01T03:05:03;7.40;99.90
24226;DHT22;51462;51.422;5.514;2022-12-01T03:15:59;7.20;99.90
24226;DHT22;51462;51.422;5.514;2022-12-01T03:19:17;7.50;99.90
24226;DHT22;51462;51.422;5.514;2022-12-01T03:21:28;7.40;99.90
24226;DHT22;51462;51.422;5.514;2022-12-01T03:24:01;7.40;99.90
24226;DHT22;51462;51.422;5.514;2022-12-01T03:26:29;7.50;99.90
24226;DHT22;51462;51.422;5.514;2022-12-01T03:28:59;7.50;99.90
24226;DHT22;51462;51.422;5.514;2022-12-01T03:31:32;7.50;99.90
24226;DHT22;51462;51.422;5.514;2022-12-01T03:36:46;7.10;99.90
24226;DHT22;51462;51.422;5.514;2022-12-01T03:39:20;7.30;99.90
24226;DHT22;51462;51.422;5.514;2022-12-01T03:41:51;7.40;99.90
24226;DHT22;51462;51.422;5.514;2022-12-01T03:44:25;7.60;99.90
24226;DHT22;51462;51.422;5.514;2022-12-01T03:47:04;7.60;99.90
24226;DHT22;51462;51.422;5.514;2022-12-01T03:49:30;7.50;99.90
24226;DHT22;51462;51.422;5.514;2022-12-01T03:55:00;7.40;99.90
24226;DHT22;51462;51.422;5.514;2022-12-01T03:57:35;7.40;99.90
24226;DHT22;51462;51.422;5.514;2022-12-01T04:00:03;7.50;99.90
24226;DHT22;51462;51.422;5.514;2022-12-01T04:02:29;7.60;99.90
24226;DHT22;51462;51.422;5.514;2022-12-01T04:04:55;7.70;99.90
24226;DHT22;51462;51.422;5.514;2022-12-01T04:07:21;7.60;99.90
24226;DHT22;51462;51.422;5.514;2022-12-01T04:09:47;7.50;99.90
24226;DHT22;51462;51.422;5.514;2022-12-01T04:12:13;7.50;99.90
24226;DHT22;51462;51.422;5.514;2022-12-01T04:15:13;7.40;99.90
24226;DHT22;51462;51.422;5.514;2022-12-01T04:17:39;7.50;99.90
24226;DHT22;51462;51.422;5.514;2022-12-01T04:20:08;7.40;99.90
24226;DHT22;51462;51.422;5.514;2022-12-01T04:22:35;7.40;99.90
24226;DHT22;51462;51.422;5.514;2022-12-01T04:25:01;7.40;99.90
24226;DHT22;51462;51.422;5.514;2022-12-01T04:27:27;7.50;99.90
24226;DHT22;51462;51.422;5.514;2022-12-01T04:29:52;7.40;99.90
24226;DHT22;51462;51.422;5.514;2022-12-01T04:32:18;7.40;99.90
24226;DHT22;51462;51.422;5.514;2022-12-01T04:34:43;7.60;99.90
24226;DHT22;51462;51.422;5.514;2022-12-01T04:37:09;7.70;99.90
24226;DHT22;51462;51.422;5.514;2022-12-01T04:39:36;7.40;99.90
24226;DHT22;51462;51.422;5.514;2022-12-01T04:42:02;7.40;99.90
24226;DHT22;51462;51.422;5.514;2022-12-01T04:44:28;7.30;99.90
24226;DHT22;51462;51.422;5.514;2022-12-01T04:46:54;7.30;99.90
24226;DHT22;51462;51.422;5.514;2022-12-01T04:49:20;7.40;99.90
24226;DHT22;51462;51.422;5.514;2022-12-01T04:51:47;7.40;99.90
24226;DHT22;51462;51.422;5.514;2022-12-01T04:54:13;7.50;99.90
24226;DHT22;51462;51.422;5.514;2022-12-01T04:56:39;7.40;99.90
24226;DHT22;51462;51.422;5.514;2022-12-01T04:59:04;7.30;99.90
24226;DHT22;51462;51.422;5.514;2022-12-01T05:01:30;7.30;99.90
24226;DHT22;51462;51.422;5.514;2022-12-01T05:03:55;7.50;99.90
24226;DHT22;51462;51.422;5.514;2022-12-01T05:06:24;7.30;99.90
24226;DHT22;51462;51.422;5.514;2022-12-01T05:08:53;7.40;99.90
24226;DHT22;51462;51.422;5.514;2022-12-01T05:11:19;7.20;99.90
24226;DHT22;51462;51.422;5.514;2022-12-01T05:13:46;7.40;99.90
24226;DHT22;51462;51.422;5.514;2022-12-01T05:16:15;7.20;99.90
24226;DHT22;51462;51.422;5.514;2022-12-01T05:18:41;7.20;99.90
24226;DHT22;51462;51.422;5.514;2022-12-01T05:21:09;7.30;99.90
24226;DHT22;51462;51.422;5.514;2022-12-01T05:23:36;7.40;99.90
24226;DHT22;51462;51.422;5.514;2022-12-01T05:26:04;7.30;99.90
24226;DHT22;51462;51.422;5.514;2022-12-01T05:28:30;7.40;99.90
24226;DHT22;51462;51.422;5.514;2022-12-01T05:30:56;7.40;99.90
24226;DHT22;51462;51.422;5.514;2022-12-01T05:33:24;7.20;99.90
24226;DHT22;51462;51.422;5.514;2022-12-01T05:35:50;7.30;99.90
24226;DHT22;51462;51.422;5.514;2022-12-01T05:38:16;7.30;99.90
24226;DHT22;51462;51.422;5.514;2022-12-01T05:40:42;7.30;99.90
24226;DHT22;51462;51.422;5.514;2022-12-01T05:43:13;7.60;99.90
24226;DHT22;51462;51.422;5.514;2022-12-01T05:45:38;7.40;99.90
24226;DHT22;51462;51.422;5.514;2022-12-01T05:48:04;7.50;99.90
24226;DHT22;51462;51.422;5.514;2022-12-01T05:50:30;7.60;99.90
24226;DHT22;51462;51.422;5.514;2022-12-01T05:52:56;7.60;99.90
24226;DHT22;51462;51.422;5.514;2022-12-01T05:55:22;7.30;99.90
24226;DHT22;51462;51.422;5.514;2022-12-01T05:57:47;7.20;99.90
24226;DHT22;51462;51.422;5.514;2022-12-01T06:00:14;7.30;99.90
24226;DHT22;51462;51.422;5.514;2022-12-01T06:02:40;7.30;99.90
24226;DHT22;51462;51.422;5.514;2022-12-01T06:05:07;7.30;99.90
24226;DHT22;51462;51.422;5.514;2022-12-01T06:07:33;7.10;99.90
24226;DHT22;51462;51.422;5.514;2022-12-01T06:10:00;7.30;99.90
24226;DHT22;51462;51.422;5.514;2022-12-01T06:12:26;7.30;99.90
24226;DHT22;51462;51.422;5.514;2022-12-01T06:14:52;7.20;99.90
24226;DHT22;51462;51.422;5.514;2022-12-01T06:17:17;7.30;99.90
24226;DHT22;51462;51.422;5.514;2022-12-01T06:19:43;7.50;99.90
24226;DHT22;51462;51.422;5.514;2022-12-01T06:22:09;7.40;99.90
24226;DHT22;51462;51.422;5.514;2022-12-01T06:24:34;7.30;99.90
24226;DHT22;51462;51.422;5.514;2022-12-01T06:27:00;7.30;99.90
24226;DHT22;51462;51.422;5.514;2022-12-01T06:29:25;7.20;99.90
24226;DHT22;51462;51.422;5.514;2022-12-01T06:31:51;7.30;99.90
24226;DHT22;51462;51.422;5.514;2022-12-01T06:34:16;7.20;99.90
24226;DHT22;51462;51.422;5.514;2022-12-01T06:36:42;7.20;99.90
24226;DHT22;51462;51.422;5.514;2022-12-01T06:39:08;7.30;99.90
24226;DHT22;51462;51.422;5.514;2022-12-01T06:41:35;7.30;99.90
24226;DHT22;51462;51.422;5.514;2022-12-01T06:44:01;7.20;99.90
24226;DHT22;51462;51.422;5.514;2022-12-01T06:46:26;7.30;99.90
24226;DHT22;51462;51.422;5.514;2022-12-01T06:48:52;7.20;99.90
24226;DHT22;51462;51.422;5.514;2022-12-01T06:51:17;7.20;99.90
24226;DHT22;51462;51.422;5.514;2022-12-01T06:53:43;7.40;99.90
24226;DHT22;51462;51.422;5.514;2022-12-01T06:56:08;7.30;99.90
24226;DHT22;51462;51.422;5.514;2022-12-01T06:58:34;7.40;99.90
24226;DHT22;51462;51.422;5.514;2022-12-01T07:01:00;7.40;99.90
24226;DHT22;51462;51.422;5.514;2022-12-01T07:03:31;7.40;99.90
24226;DHT22;51462;51.422;5.514;2022-12-01T07:05:58;7.40;99.90
24226;DHT22;51462;51.422;5.514;2022-12-01T07:08:25;7.50;99.90
24226;DHT22;51462;51.422;5.514;2022-12-01T07:11:05;7.30;99.90
24226;DHT22;51462;51.422;5.514;2022-12-01T07:13:34;7.20;99.90
24226;DHT22;51462;51.422;5.514;2022-12-01T07:16:01;7.20;99.90
24226;DHT22;51462;51.422;5.514;2022-12-01T07:18:28;7.30;99.90
24226;DHT22;51462;51.422;5.514;2022-12-01T07:20:58;7.40;99.90
24226;DHT22;51462;51.422;5.514;2022-12-01T07:23:23;7.40;99.90
24226;DHT22;51462;51.422;5.514;2022-12-01T07:25:57;7.60;99.90
24226;DHT22;51462;51.422;5.514;2022-12-01T07:28:23;7.70;99.90
24226;DHT22;51462;51.422;5.514;2022-12-01T07:30:48;7.70;99.90
24226;DHT22;51462;51.422;5.514;2022-12-01T07:33:14;7.80;99.90
24226;DHT22;51462;51.422;5.514;2022-12-01T07:35:39;7.90;99.90
24226;DHT22;51462;51.422;5.514;2022-12-01T07:38:05;7.60;99.90
24226;DHT22;51462;51.422;5.514;2022-12-01T07:40:30;7.70;99.90
24226;DHT22;51462;51.422;5.514;2022-12-01T07:42:56;7.90;99.90
24226;DHT22;51462;51.422;5.514;2022-12-01T07:45:21;7.80;99.90
24226;DHT22;51462;51.422;5.514;2022-12-01T07:47:47;7.40;99.90
24226;DHT22;51462;51.422;5.514;2022-12-01T07:50:12;7.60;99.90
24226;DHT22;51462;51.422;5.514;2022-12-01T07:52:38;7.40;99.90
24226;DHT22;51462;51.422;5.514;2022-12-01T07:55:03;7.20;99.90
24226;DHT22;51462;51.422;5.514;2022-12-01T07:57:29;7.40;99.90
24226;DHT22;51462;51.422;5.514;2022-12-01T07:59:54;7.60;99.90
24226;DHT22;51462;51.422;5.514;2022-12-01T08:02:20;7.80;99.90
24226;DHT22;51462;51.422;5.514;2022-12-01T08:04:45;7.70;99.90
24226;DHT22;51462;51.422;5.514;2022-12-01T08:07:11;7.70;99.90
24226;DHT22;51462;51.422;5.514;2022-12-01T08:09:37;7.50;99.90
24226;DHT22;51462;51.422;5.514;2022-12-01T08:12:02;7.60;99.90
24226;DHT22;51462;51.422;5.514;2022-12-01T08:14:28;7.70;99.90
24226;DHT22;51462;51.422;5.514;2022-12-01T08:16:53;7.60;99.90
24226;DHT22;51462;51.422;5.514;2022-12-01T08:19:19;7.60;99.90
24226;DHT22;51462;51.422;5.514;2022-12-01T08:21:45;7.50;99.90
24226;DHT22;51462;51.422;5.514;2022-12-01T08:24:10;7.40;99.90
24226;DHT22;51462;51.422;5.514;2022-12-01T08:26:36;7.70;99.90
24226;DHT22;51462;51.422;5.514;2022-12-01T08:29:01;7.40;99.90
24226;DHT22;51462;51.422;5.514;2022-12-01T08:31:30;7.50;99.90
24226;DHT22;51462;51.422;5.514;2022-12-01T08:33:56;7.60;99.90
24226;DHT22;51462;51.422;5.514;2022-12-01T08:36:22;7.60;99.90
24226;DHT22;51462;51.422;5.514;2022-12-01T08:38:50;7.50;99.90
24226;DHT22;51462;51.422;5.514;2022-12-01T08:41:16;7.40;99.90
24226;DHT22;51462;51.422;5.514;2022-12-01T08:43:42;7.50;99.90
24226;DHT22;51462;51.422;5.514;2022-12-01T08:46:10;7.70;99.90
24226;DHT22;51462;51.422;5.514;2022-12-01T08:48:36;7.70;99.90
24226;DHT22;51462;51.422;5.514;2022-12-01T08:51:10;7.70;99.90
24226;DHT22;51462;51.422;5.514;2022-12-01T08:53:38;7.80;99.90
24226;DHT22;51462;51.422;5.514;2022-12-01T08:56:07;7.80;99.90
24226;DHT22;51462;51.422;5.514;2022-12-01T08:58:33;7.60;99.90
24226;DHT22;51462;51.422;5.514;2022-12-01T09:01:07;8.10;99.90
24226;DHT22;51462;51.422;5.514;2022-12-01T09:03:33;8.00;99.90
24226;DHT22;51462;51.422;5.514;2022-12-01T09:06:16;8.00;99.90
24226;DHT22;51462;51.422;5.514;2022-12-01T09:08:44;8.10;99.90
24226;DHT22;51462;51.422;5.514;2022-12-01T09:11:13;7.80;99.90
24226;DHT22;51462;51.422;5.514;2022-12-01T09:13:39;7.70;99.90
24226;DHT22;51462;51.422;5.514;2022-12-01T09:16:09;7.70;99.90
24226;DHT22;51462;51.422;5.514;2022-12-01T09:18:35;7.80;99.90
24226;DHT22;51462;51.422;5.514;2022-12-01T09:21:42;7.60;99.90
24226;DHT22;51462;51.422;5.514;2022-12-01T09:24:02;7.60;99.90
24226;DHT22;51462;51.422;5.514;2022-12-01T09:26:28;7.70;99.90
24226;DHT22;51462;51.422;5.514;2022-12-01T09:28:58;7.70;99.90
24226;DHT22;51462;51.422;5.514;2022-12-01T09:31:24;7.80;99.90
24226;DHT22;51462;51.422;5.514;2022-12-01T09:33:57;8.20;99.90
24226;DHT22;51462;51.422;5.514;2022-12-01T09:36:24;8.20;99.90
24226;DHT22;51462;51.422;5.514;2022-12-01T09:38:50;8.10;99.90
24226;DHT22;51462;51.422;5.514;2022-12-01T09:41:19;8.00;99.90
24226;DHT22;51462;51.422;5.514;2022-12-01T09:43:57;8.00;99.90
24226;DHT22;51462;51.422;5.514;2022-12-01T09:46:35;8.10;99.90
24226;DHT22;51462;51.422;5.514;2022-12-01T09:49:03;7.80;99.90
24226;DHT22;51462;51.422;5.514;2022-12-01T09:51:28;8.00;99.90
24226;DHT22;51462;51.422;5.514;2022-12-01T09:53:57;8.40;99.90
24226;DHT22;51462;51.422;5.514;2022-12-01T09:56:25;8.60;99.90
24226;DHT22;51462;51.422;5.514;2022-12-01T09:59:01;8.30;99.90
24226;DHT22;51462;51.422;5.514;2022-12-01T10:01:35;8.20;99.90
24226;DHT22;51462;51.422;5.514;2022-12-01T10:04:08;8.20;99.90
24226;DHT22;51462;51.422;5.514;2022-12-01T10:06:38;8.50;99.90
24226;DHT22;51462;51.422;5.514;2022-12-01T10:12:16;8.40;99.90
24226;DHT22;51462;51.422;5.514;2022-12-01T10:14:44;8.50;99.90
24226;DHT22;51462;51.422;5.514;2022-12-01T10:17:38;8.50;99.90
24226;DHT22;51462;51.422;5.514;2022-12-01T10:20:35;8.50;99.90
24226;DHT22;51462;51.422;5.514;2022-12-01T10:25:58;8.50;99.90
24226;DHT22;51462;51.422;5.514;2022-12-01T10:31:08;8.30;99.90
24226;DHT22;51462;51.422;5.514;2022-12-01T10:33:46;8.10;99.90
24226;DHT22;51462;51.422;5.514;2022-12-01T10:36:14;8.40;99.90
24226;DHT22;51462;51.422;5.514;2022-12-01T10:38:39;8.40;99.90
24226;DHT22;51462;51.422;5.514;2022-12-01T10:41:10;8.40;99.90
24226;DHT22;51462;51.422;5.514;2022-12-01T10:43:46;8.20;99.90
24226;DHT22;51462;51.422;5.514;2022-12-01T10:46:28;8.50;99.90
24226;DHT22;51462;51.422;5.514;2022-12-01T10:48:58;8.70;99.90
24226;DHT22;51462;51.422;5.514;2022-12-01T10:51:26;8.50;99.90
24226;DHT22;51462;51.422;5.514;2022-12-01T10:54:10;8.50;99.90
24226;DHT22;51462;51.422;5.514;2022-12-01T10:56:39;8.80;99.90
24226;DHT22;51462;51.422;5.514;2022-12-01T10:59:20;9.10;99.90
24226;DHT22;51462;51.422;5.514;2022-12-01T11:01:47;9.20;99.90
24226;DHT22;51462;51.422;5.514;2022-12-01T11:06:57;9.50;99.90
24226;DHT22;51462;51.422;5.514;2022-12-01T11:09:25;9.30;99.90
24226;DHT22;51462;51.422;5.514;2022-12-01T11:11:57;9.20;99.90
24226;DHT22;51462;51.422;5.514;2022-12-01T11:17:27;9.10;99.90
24226;DHT22;51462;51.422;5.514;2022-12-01T11:19:53;9.20;99.90
24226;DHT22;51462;51.422;5.514;2022-12-01T11:22:25;9.40;99.90
24226;DHT22;51462;51.422;5.514;2022-12-01T11:27:22;9.30;99.90
24226;DHT22;51462;51.422;5.514;2022-12-01T11:29:50;9.10;99.90
24226;DHT22;51462;51.422;5.514;2022-12-01T11:32:23;9.30;99.90
24226;DHT22;51462;51.422;5.514;2022-12-01T11:34:56;9.10;99.90
24226;DHT22;51462;51.422;5.514;2022-12-01T11:37:26;9.00;99.90
24226;DHT22;51462;51.422;5.514;2022-12-01T11:39:54;9.00;99.90
24226;DHT22;51462;51.422;5.514;2022-12-01T11:42:26;9.10;99.90
24226;DHT22;51462;51.422;5.514;2022-12-01T11:45:03;9.10;99.90
24226;DHT22;51462;51.422;5.514;2022-12-01T11:47:30;9.10;99.90
24226;DHT22;51462;51.422;5.514;2022-12-01T11:50:01;9.20;99.90
24226;DHT22;51462;51.422;5.514;2022-12-01T11:52:31;9.30;99.90
24226;DHT22;51462;51.422;5.514;2022-12-01T11:57:29;9.40;99.90
24226;DHT22;51462;51.422;5.514;2022-12-01T11:59:55;9.40;99.90
24226;DHT22;51462;51.422;5.514;2022-12-01T12:02:34;9.50;99.90
24226;DHT22;51462;51.422;5.514;2022-12-01T12:08:23;9.30;99.90
24226;DHT22;51462;51.422;5.514;2022-12-01T12:17:10;9.30;99.90
24226;DHT22;51462;51.422;5.514;2022-12-01T12:22:54;9.20;99.90
24226;DHT22;51462;51.422;5.514;2022-12-01T12:28:11;9.10;99.90
24226;DHT22;51462;51.422;5.514;2022-12-01T12:37:09;9.50;99.90
24226;DHT22;51462;51.422;5.514;2022-12-01T12:42:17;10.00;99.90
24226;DHT22;51462;51.422;5.514;2022-12-01T12:45:12;9.80;99.90
24226;DHT22;51462;51.422;5.514;2022-12-01T12:48:04;10.10;99.90
24226;DHT22;51462;51.422;5.514;2022-12-01T12:53:09;10.10;99.90
24226;DHT22;51462;51.422;5.514;2022-12-01T12:55:40;10.10;99.90
24226;DHT22;51462;51.422;5.514;2022-12-01T12:58:21;10.10;99.90
24226;DHT22;51462;51.422;5.514;2022-12-01T13:00:57;10.10;99.90
24226;DHT22;51462;51.422;5.514;2022-12-01T13:06:29;10.00;99.90
24226;DHT22;51462;51.422;5.514;2022-12-01T13:09:13;9.80;99.90
24226;DHT22;51462;51.422;5.514;2022-12-01T13:11:46;9.90;99.90
24226;DHT22;51462;51.422;5.514;2022-12-01T13:14:27;10.00;99.90
24226;DHT22;51462;51.422;5.514;2022-12-01T13:16:57;10.20;99.90
24226;DHT22;51462;51.422;5.514;2022-12-01T13:19:36;10.00;99.90
24226;DHT22;51462;51.422;5.514;2022-12-01T13:22:04;9.90;99.90
24226;DHT22;51462;51.422;5.514;2022-12-01T13:24:31;10.00;99.90
24226;DHT22;51462;51.422;5.514;2022-12-01T13:27:06;10.20;99.90
24226;DHT22;51462;51.422;5.514;2022-12-01T13:29:38;10.10;99.90
24226;DHT22;51462;51.422;5.514;2022-12-01T13:32:35;10.20;99.90
24226;DHT22;51462;51.422;5.514;2022-12-01T13:35:04;9.90;99.90
24226;DHT22;51462;51.422;5.514;2022-12-01T13:37:36;9.90;99.90
24226;DHT22;51462;51.422;5.514;2022-12-01T13:40:08;9.70;99.90
24226;DHT22;51462;51.422;5.514;2022-12-01T13:42:35;9.70;99.90
24226;DHT22;51462;51.422;5.514;2022-12-01T13:45:16;9.90;99.90
24226;DHT22;51462;51.422;5.514;2022-12-01T14:03:59;10.00;99.90
24226;DHT22;51462;51.422;5.514;2022-12-01T14:06:49;9.90;99.90
24226;DHT22;51462;51.422;5.514;2022-12-01T14:09:36;9.90;99.90
24226;DHT22;51462;51.422;5.514;2022-12-01T14:14:36;9.70;99.90
24226;DHT22;51462;51.422;5.514;2022-12-01T14:17:03;10.00;99.90
24226;DHT22;51462;51.422;5.514;2022-12-01T14:22:01;9.90;99.90
24226;DHT22;51462;51.422;5.514;2022-12-01T14:24:38;9.60;99.90
24226;DHT22;51462;51.422;5.514;2022-12-01T14:27:06;9.90;99.90
24226;DHT22;51462;51.422;5.514;2022-12-01T14:29:37;10.00;99.90
24226;DHT22;51462;51.422;5.514;2022-12-01T14:34:37;10.20;99.90
24226;DHT22;51462;51.422;5.514;2022-12-01T14:37:08;9.90;99.90
24226;DHT22;51462;51.422;5.514;2022-12-01T14:39:38;9.80;99.90
24226;DHT22;51462;51.422;5.514;2022-12-01T14:42:29;10.00;99.90
24226;DHT22;51462;51.422;5.514;2022-12-01T14:45:24;9.80;99.90
24226;DHT22;51462;51.422;5.514;2022-12-01T14:48:12;10.00;99.90
24226;DHT22;51462;51.422;5.514;2022-12-01T14:50:47;9.80;99.90
24226;DHT22;51462;51.422;5.514;2022-12-01T14:53:23;9.80;99.90
24226;DHT22;51462;51.422;5.514;2022-12-01T14:55:55;9.70;99.90
24226;DHT22;51462;51.422;5.514;2022-12-01T14:58:28;9.90;99.90
24226;DHT22;51462;51.422;5.514;2022-12-01T15:01:12;9.70;99.90
24226;DHT22;51462;51.422;5.514;2022-12-01T15:03:45;9.50;99.90
24226;DHT22;51462;51.422;5.514;2022-12-01T15:06:23;9.40;99.90
24226;DHT22;51462;51.422;5.514;2022-12-01T15:11:57;9.50;99.90
24226;DHT22;51462;51.422;5.514;2022-12-01T15:17:01;9.40;99.90
24226;DHT22;51462;51.422;5.514;2022-12-01T15:19:39;9.20;99.90
24226;DHT22;51462;51.422;5.514;2022-12-01T15:22:15;9.00;99.90
24226;DHT22;51462;51.422;5.514;2022-12-01T15:24:42;8.80;99.90
24226;DHT22;51462;51.422;5.514;2022-12-01T15:27:27;8.90;99.90
24226;DHT22;51462;51.422;5.514;2022-12-01T15:29:54;9.40;99.90
24226;DHT22;51462;51.422;5.514;2022-12-01T15:32:21;9.30;99.90
24226;DHT22;51462;51.422;5.514;2022-12-01T15:34:51;9.10;99.90
24226;DHT22;51462;51.422;5.514;2022-12-01T15:37:22;9.00;99.90
24226;DHT22;51462;51.422;5.514;2022-12-01T15:39:54;8.80;99.90
24226;DHT22;51462;51.422;5.514;2022-12-01T15:42:27;9.00;99.90
24226;DHT22;51462;51.422;5.514;2022-12-01T15:50:27;9.10;99.90
24226;DHT22;51462;51.422;5.514;2022-12-01T15:52:54;8.80;99.90
24226;DHT22;51462;51.422;5.514;2022-12-01T15:55:27;8.80;99.90
24226;DHT22;51462;51.422;5.514;2022-12-01T15:57:54;8.70;99.90
24226;DHT22;51462;51.422;5.514;2022-12-01T16:00:21;8.50;99.90
24226;DHT22;51462;51.422;5.514;2022-12-01T16:02:55;8.60;99.90
24226;DHT22;51462;51.422;5.514;2022-12-01T16:05:24;8.60;99.90
24226;DHT22;51462;51.422;5.514;2022-12-01T16:07:51;8.60;99.90
24226;DHT22;51462;51.422;5.514;2022-12-01T16:10:29;8.60;99.90
24226;DHT22;51462;51.422;5.514;2022-12-01T16:15:59;8.40;99.90
24226;DHT22;51462;51.422;5.514;2022-12-01T16:18:30;8.90;99.90
24226;DHT22;51462;51.422;5.514;2022-12-01T16:21:04;8.60;99.90
24226;DHT22;51462;51.422;5.514;2022-12-01T16:23:30;8.30;99.90
24226;DHT22;51462;51.422;5.514;2022-12-01T16:25:57;8.20;99.90
24226;DHT22;51462;51.422;5.514;2022-12-01T16:28:31;8.20;99.90
24226;DHT22;51462;51.422;5.514;2022-12-01T16:31:00;8.20;99.90
24226;DHT22;51462;51.422;5.514;2022-12-01T16:33:27;8.30;99.90
24226;DHT22;51462;51.422;5.514;2022-12-01T16:35:54;8.40;99.90
24226;DHT22;51462;51.422;5.514;2022-12-01T16:38:24;8.60;99.90
24226;DHT22;51462;51.422;5.514;2022-12-01T16:40:52;8.80;99.90
24226;DHT22;51462;51.422;5.514;2022-12-01T16:43:21;8.40;99.90
24226;DHT22;51462;51.422;5.514;2022-12-01T16:45:48;8.60;99.90
24226;DHT22;51462;51.422;5.514;2022-12-01T16:48:18;8.40;99.90
24226;DHT22;51462;51.422;5.514;2022-12-01T16:50:48;8.50;99.90
24226;DHT22;51462;51.422;5.514;2022-12-01T16:53:14;8.50;99.90
24226;DHT22;51462;51.422;5.514;2022-12-01T16:55:53;8.50;99.90
24226;DHT22;51462;51.422;5.514;2022-12-01T16:58:19;8.30;99.90
24226;DHT22;51462;51.422;5.514;2022-12-01T17:00:45;8.30;99.90
24226;DHT22;51462;51.422;5.514;2022-12-01T17:03:18;8.10;99.90
24226;DHT22;51462;51.422;5.514;2022-12-01T17:05:43;8.30;99.90
24226;DHT22;51462;51.422;5.514;2022-12-01T17:08:09;8.00;99.90
24226;DHT22;51462;51.422;5.514;2022-12-01T17:10:39;7.90;99.90
24226;DHT22;51462;51.422;5.514;2022-12-01T17:13:05;8.40;99.90
24226;DHT22;51462;51.422;5.514;2022-12-01T17:15:30;8.60;99.90
24226;DHT22;51462;51.422;5.514;2022-12-01T17:17:56;8.30;99.90
24226;DHT22;51462;51.422;5.514;2022-12-01T17:20:21;8.30;99.90
24226;DHT22;51462;51.422;5.514;2022-12-01T17:22:47;8.20;99.90
24226;DHT22;51462;51.422;5.514;2022-12-01T17:25:13;8.20;99.90
24226;DHT22;51462;51.422;5.514;2022-12-01T17:27:38;8.20;99.90
24226;DHT22;51462;51.422;5.514;2022-12-01T17:30:05;7.90;99.90
24226;DHT22;51462;51.422;5.514;2022-12-01T17:32:31;7.90;99.90
24226;DHT22;51462;51.422;5.514;2022-12-01T17:34:57;7.80;99.90
24226;DHT22;51462;51.422;5.514;2022-12-01T17:37:22;7.90;99.90
24226;DHT22;51462;51.422;5.514;2022-12-01T17:39:49;7.90;99.90
24226;DHT22;51462;51.422;5.514;2022-12-01T17:42:14;7.90;99.90
24226;DHT22;51462;51.422;5.514;2022-12-01T17:44:40;7.80;99.90
24226;DHT22;51462;51.422;5.514;2022-12-01T17:47:06;7.90;99.90
24226;DHT22;51462;51.422;5.514;2022-12-01T17:49:31;7.80;99.90
24226;DHT22;51462;51.422;5.514;2022-12-01T17:51:57;7.80;99.90
24226;DHT22;51462;51.422;5.514;2022-12-01T17:54:23;8.30;99.90
24226;DHT22;51462;51.422;5.514;2022-12-01T17:56:48;8.10;99.90
24226;DHT22;51462;51.422;5.514;2022-12-01T17:59:14;7.90;99.90